Time;durP1;ratioP1;P1;durP2;ratioP2;P2;SDS_P1;SDS_P2;PMS_P1;PMS_P2;Temp;Humidity;BMP_temperature;BMP_pressure;BME280_temperature;BME280_humidity;BME280_pressure;Samples;Min_cycle;Max_cycle;Signal;HPM_P1;HPM_P2
2021/06/23 00:00:06;;;;;;;11.37;7.63;;;;;;;29.44;65.82;100922.34;4984554;28;68970;-34
2021/06/23 00:02:40;;;;;;;11.03;7.87;;;;;;;29.49;64.89;100929.81;4985048;28;65417;-34
2021/06/23 00:05:12;;;;;;;13.93;7.43;;;;;;;29.51;65.22;100927.75;5014638;28;70461;-37
2021/06/23 00:07:44;;;;;;;20.25;7.88;;;;;;;29.58;65.52;100942.06;5009602;28;66210;-38
2021/06/23 00:10:16;;;;;;;13.00;7.95;;;;;;;29.59;64.59;100938.34;5046119;28;70047;-35
2021/06/23 00:15:57;;;;;;;10.95;7.43;;;;;;;29.58;65.69;100953.69;5071927;27;69238;-34
2021/06/23 00:18:28;;;;;;;19.65;6.55;;;;;;;29.66;65.33;100955.41;5075359;27;65792;-36
2021/06/23 00:21:00;;;;;;;30.88;7.53;;;;;;;29.71;65.59;100968.28;5074997;27;69105;-33
2021/06/23 00:23:31;;;;;;;21.50;7.25;;;;;;;29.76;66.19;100969.31;5074726;27;65478;-33
2021/06/23 00:29:26;;;;;;;13.50;7.50;;;;;;;29.90;65.39;100977.41;5073059;28;66180;-34
2021/06/23 00:31:59;;;;;;;14.30;6.60;;;;;;;29.94;64.75;100967.81;5074040;27;69286;-34
2021/06/23 00:34:49;;;;;;;16.17;6.35;;;;;;;29.95;65.57;100969.47;5075439;27;65973;-34
2021/06/23 00:37:20;;;;;;;15.05;6.15;;;;;;;30.03;64.23;100972.81;5073442;28;70002;-34
2021/06/23 00:39:52;;;;;;;13.80;6.63;;;;;;;30.08;64.11;100971.31;5071606;27;65916;-34
2021/06/23 00:46:29;;;;;;;16.40;6.45;;;;;;;30.13;63.70;100972.34;5070004;28;66172;-33
2021/06/23 00:49:04;;;;;;;9.52;5.88;;;;;;;30.18;63.47;100975.25;5050255;28;69932;-33
2021/06/23 00:55:04;;;;;;;13.30;6.35;;;;;;;30.25;63.17;100975.25;5050617;28;69765;-34
2021/06/23 01:00:51;;;;;;;14.02;5.53;;;;;;;30.31;63.15;100984.38;5045442;28;69587;-34
2021/06/23 01:03:24;;;;;;;6.38;5.78;;;;;;;30.35;62.99;100991.88;5047906;28;65598;-34
2021/06/23 01:06:14;;;;;;;9.32;5.35;;;;;;;30.38;62.79;101001.44;5047864;28;69348;-35
2021/06/23 01:08:45;;;;;;;;;;;;;;;30.25;63.96;101003.13;5022688;28;66149;-34
2021/06/23 01:11:20;;;;;;;10.30;4.80;;;;;;;30.42;62.73;101013.47;5030906;28;69636;-34
2021/06/23 01:14:05;;;;;;;11.60;5.47;;;;;;;30.46;63.16;101014.72;5048031;28;67330;-35
2021/06/23 01:16:38;;;;;;;7.57;5.43;;;;;;;30.49;62.48;101020.53;5045990;28;70078;-34
2021/06/23 01:22:22;;;;;;;9.68;6.00;;;;;;;30.50;62.75;101026.78;5067775;27;70066;-35
2021/06/23 01:24:53;;;;;;;6.78;4.85;;;;;;;30.60;62.23;101027.16;5066516;27;66249;-35
2021/06/23 01:27:25;;;;;;;7.90;5.53;;;;;;;30.59;62.67;101030.94;5065182;27;70253;-35
2021/06/23 01:30:16;;;;;;;11.45;5.35;;;;;;;30.65;62.53;101035.47;5070422;27;66260;-34
2021/06/23 01:33:11;;;;;;;6.15;5.35;;;;;;;30.62;62.66;101038.63;5066869;28;69917;-34
2021/06/23 01:38:35;;;;;;;6.57;4.78;;;;;;;30.75;62.44;101045.00;4987375;28;70061;-34
2021/06/23 01:41:40;;;;;;;7.18;4.70;;;;;;;30.80;61.88;101047.94;4968601;28;66073;-34
2021/06/23 01:44:31;;;;;;;6.25;4.88;;;;;;;30.82;62.09;101062.94;4938609;28;69246;-35
2021/06/23 01:47:04;;;;;;;6.95;5.25;;;;;;;30.84;62.40;101060.84;4948590;28;65447;-35
2021/06/23 01:55:43;;;;;;;10.15;4.93;;;;;;;30.86;62.18;101057.91;4948497;28;68874;-34
2021/06/23 01:58:15;;;;;;;7.75;5.22;;;;;;;30.88;62.00;101044.97;4948982;28;65914;-34
2021/06/23 02:04:45;;;;;;;6.10;4.80;;;;;;;30.80;61.85;101042.53;4948551;28;66470;-35
2021/06/23 02:08:05;;;;;;;5.05;4.05;;;;;;;30.97;62.37;101054.50;4874393;29;69226;-34
2021/06/23 02:11:19;;;;;;;5.28;4.25;;;;;;;30.99;62.16;101049.72;4873855;29;66285;-34
2021/06/23 02:14:42;;;;;;;7.65;4.20;;;;;;;31.01;61.66;101055.75;4906714;28;71382;-34
2021/06/23 02:17:52;;;;;;;5.50;4.40;;;;;;;30.98;61.82;101050.75;4910510;28;66002;-35
2021/06/23 02:23:54;;;;;;;4.40;4.00;;;;;;;31.05;61.27;101035.28;4968724;28;65903;-35
2021/06/23 02:26:43;;;;;;;;;;;;;;;31.03;61.72;101048.22;4970631;28;70817;-35
2021/06/23 02:29:33;;;;;;;6.55;3.67;;;;;;;31.26;61.15;101041.41;4983899;28;65642;-34
2021/06/23 02:32:05;;;;;;;5.93;4.57;;;;;;;31.27;61.72;101049.31;4985662;28;69968;-34
2021/06/23 02:37:46;;;;;;;4.63;4.22;;;;;;;31.33;61.30;101047.63;4986505;28;69598;-35
2021/06/23 02:40:37;;;;;;;6.70;3.83;;;;;;;31.32;61.17;101037.84;4998045;27;67098;-34
2021/06/23 02:43:27;;;;;;;6.15;3.78;;;;;;;31.41;61.25;101017.56;5067656;27;70629;-34
2021/06/23 02:46:18;;;;;;;4.32;3.92;;;;;;;31.39;61.06;101025.06;5068616;27;66205;-35
2021/06/23 02:48:52;;;;;;;9.23;4.05;;;;;;;31.46;61.42;101025.03;5067776;27;69276;-36
2021/06/23 02:51:40;;;;;;;8.25;3.95;;;;;;;31.30;61.17;101005.50;5088528;27;64582;-34
2021/06/23 02:54:13;;;;;;;6.55;3.55;;;;;;;31.49;61.05;101017.28;5069114;28;71157;-38
2021/06/23 02:57:04;;;;;;;;;;;;;;;31.27;61.20;100999.72;5055590;28;66323;-34
2021/06/23 02:59:37;;;;;;;5.15;3.42;;;;;;;31.57;60.71;101016.19;5069188;27;70013;-36
2021/06/23 03:04:58;;;;;;;3.47;2.97;;;;;;;31.61;60.63;100996.53;5071552;28;69759;-35
2021/06/23 03:07:32;;;;;;;4.40;4.00;;;;;;;31.36;60.51;100949.63;5068784;28;66484;-36
2021/06/23 03:10:13;;;;;;;5.05;3.72;;;;;;;31.65;60.71;100985.22;5062041;28;69785;-42
2021/06/23 03:13:03;;;;;;;4.95;3.67;;;;;;;31.75;60.45;100986.38;5068709;28;65590;-35
2021/06/23 03:22:26;;;;;;;7.32;3.80;;;;;;;31.76;60.62;100970.94;5072118;27;70013;-36
2021/06/23 03:24:59;;;;;;;5.68;4.05;;;;;;;31.77;60.46;100957.16;5083721;27;66047;-34
2021/06/23 03:27:53;;;;;;;3.50;3.17;;;;;;;31.78;60.40;100968.81;5068888;27;69638;-35
2021/06/23 03:30:27;;;;;;;3.90;3.50;;;;;;;31.69;60.35;100929.50;5069073;27;65558;-35
2021/06/23 03:33:51;;;;;;;5.45;4.03;;;;;;;31.93;60.30;100957.63;5070960;28;70602;-35
2021/06/23 03:37:17;;;;;;;5.35;3.67;;;;;;;31.88;59.87;100958.28;5015700;28;66473;-35
2021/06/23 03:39:49;;;;;;;3.95;3.10;;;;;;;31.92;59.91;100942.41;5019743;28;70015;-35
2021/06/23 03:42:21;;;;;;;5.32;3.53;;;;;;;31.94;60.06;100949.28;5007798;28;66775;-35
2021/06/23 03:44:56;;;;;;;3.80;3.50;;;;;;;31.96;59.94;100938.22;5010405;28;69999;-34
2021/06/23 03:47:46;;;;;;;3.83;3.03;;;;;;;31.94;59.95;100943.84;5019103;28;65525;-34
2021/06/23 03:53:09;;;;;;;5.13;3.85;;;;;;;32.05;60.16;100947.69;5010585;28;66092;-35
2021/06/23 03:55:43;;;;;;;6.32;3.50;;;;;;;32.00;59.74;100929.38;5017127;28;70386;-36
2021/06/23 03:58:14;;;;;;;;;;;;;;;31.82;60.62;100938.31;5014508;28;65375;-35
2021/06/23 04:01:22;;;;;;;4.63;3.20;;;;;;;31.98;59.80;100927.94;5022970;28;70092;-35
2021/06/23 04:10:40;;;;;;;4.05;3.42;;;;;;;32.17;59.49;100920.63;5014872;28;65409;-35
2021/06/23 04:19:31;;;;;;;3.22;2.92;;;;;;;32.20;59.55;100907.41;5067640;28;70521;-35
2021/06/23 04:22:06;;;;;;;5.07;3.55;;;;;;;32.26;59.24;100911.09;5065873;28;65979;-35
2021/06/23 04:24:38;;;;;;;3.55;3.10;;;;;;;32.19;59.46;100877.81;5067148;28;70566;-35
2021/06/23 04:30:12;;;;;;;7.53;3.30;;;;;;;32.31;59.15;100894.97;5054019;28;69933;-35
2021/06/23 04:33:01;;;;;;;4.82;4.00;;;;;;;32.30;59.04;100885.16;5068743;28;66268;-34
2021/06/23 04:35:51;;;;;;;3.58;3.17;;;;;;;32.30;59.43;100885.16;5066302;28;70657;-34
2021/06/23 04:42:22;;;;;;;4.57;2.90;;;;;;;32.35;59.02;100871.75;5018429;28;70459;-35
2021/06/23 04:44:53;;;;;;;;;;;;;;;32.14;59.50;100880.38;5026242;28;65733;-35
2021/06/23 04:47:43;;;;;;;4.07;2.95;;;;;;;32.35;59.01;100871.75;5026802;28;70248;-36
2021/06/23 04:50:14;;;;;;;;;;;;;;;32.16;59.61;100857.38;5023454;28;66817;-35
2021/06/23 04:53:33;;;;;;;8.60;3.10;;;;;;;32.32;58.81;100850.47;5002265;28;70046;-35
2021/06/23 04:56:09;;;;;;;6.15;2.95;;;;;;;32.42;58.89;100845.31;4992427;28;66547;-35
2021/06/23 04:59:41;;;;;;;4.55;3.30;;;;;;;32.38;58.74;100837.88;5007031;28;70157;-34
2021/06/23 05:02:14;;;;;;;3.83;2.92;;;;;;;32.42;58.82;100811.91;4929906;28;66110;-34
2021/06/23 05:04:49;;;;;;;4.10;2.95;;;;;;;32.49;58.75;100827.06;4968213;28;69849;-35
2021/06/23 05:07:20;;;;;;;6.05;3.42;;;;;;;32.52;58.72;100811.38;4957158;28;65474;-35
2021/06/23 05:09:52;;;;;;;2.83;2.53;;;;;;;32.55;58.36;100827.19;4960449;28;69047;-34
2021/06/23 05:15:18;;;;;;;5.15;2.85;;;;;;;32.63;58.26;100805.97;4956897;28;70660;-34
2021/06/23 05:17:49;;;;;;;4.07;2.97;;;;;;;32.65;58.53;100800.28;4959752;28;65541;-35
2021/06/23 05:20:24;;;;;;;;;;;;;;;32.41;59.04;100808.38;5004528;28;70074;-35
2021/06/23 05:22:56;;;;;;;4.13;3.03;;;;;;;32.62;58.48;100803.47;5001594;28;66764;-34
2021/06/23 05:25:43;;;;;;;4.63;2.67;;;;;;;32.62;58.25;100801.56;4998116;28;70356;-35
2021/06/23 05:28:35;;;;;;;2.80;2.60;;;;;;;32.61;58.21;100799.09;4952550;28;66041;-35
2021/06/23 05:31:06;;;;;;;;;;;;;;;32.39;58.87;100818.63;4951200;28;69730;-34
2021/06/23 05:33:38;;;;;;;4.97;3.28;;;;;;;32.61;58.25;100837.13;4950882;28;66060;-34
2021/06/23 05:36:10;;;;;;;7.45;4.20;;;;;;;32.60;57.92;100824.63;4949801;28;69710;-37
2021/06/23 05:39:00;;;;;;;6.75;4.32;;;;;;;32.55;58.05;100817.16;4980480;28;65370;-34
2021/06/23 05:41:31;;;;;;;8.63;4.13;;;;;;;32.60;58.05;100813.75;5008079;28;70818;-35
2021/06/23 05:44:03;;;;;;;5.18;4.43;;;;;;;32.61;58.61;100827.09;5007183;28;66177;-36
2021/06/23 05:46:35;;;;;;;9.32;4.82;;;;;;;32.60;58.43;100821.91;5009970;28;69749;-34
2021/06/23 05:49:25;;;;;;;7.68;5.00;;;;;;;32.52;58.85;100806.78;5006247;28;65270;-35
2021/06/23 05:52:17;;;;;;;9.75;4.97;;;;;;;32.56;58.75;100823.41;5006550;28;71016;-35
2021/06/23 05:54:48;;;;;;;;;;;;;;;32.30;58.97;100817.31;4992867;28;66684;-36
2021/06/23 05:57:21;;;;;;;9.02;4.78;;;;;;;32.46;59.00;100803.09;4990857;28;69590;-35
2021/06/23 05:59:53;;;;;;;4.75;4.20;;;;;;;32.49;58.96;100797.19;5008111;28;66646;-35
2021/06/23 06:02:24;;;;;;;;;;;;;;;32.24;59.80;100786.50;5009920;28;70203;-35
2021/06/23 06:04:55;;;;;;;4.88;4.38;;;;;;;32.42;59.34;100761.13;5027193;28;65185;-36
2021/06/23 06:07:27;;;;;;;5.10;4.60;;;;;;;32.42;59.13;100753.00;5024160;28;70015;-35
2021/06/23 06:09:58;;;;;;;5.35;4.85;;;;;;;32.43;59.13;100764.69;5020820;28;66500;-35
2021/06/23 06:12:50;;;;;;;4.63;4.22;;;;;;;32.39;59.40;100777.91;5028889;28;70031;-35
2021/06/23 06:15:23;;;;;;;5.53;4.55;;;;;;;32.42;59.37;100782.84;5026592;28;66487;-35
2021/06/23 06:17:59;;;;;;;4.63;4.22;;;;;;;32.39;59.05;100786.03;5045427;27;69650;-36
2021/06/23 06:20:32;;;;;;;5.15;4.28;;;;;;;32.37;59.58;100777.28;5061767;27;66141;-37
2021/06/23 06:23:21;;;;;;;6.57;4.00;;;;;;;32.38;59.80;100778.97;5066038;27;70116;-36
2021/06/23 06:25:53;;;;;;;5.75;3.55;;;;;;;32.33;59.53;100769.88;5061144;28;65978;-35
2021/06/23 06:28:26;;;;;;;4.05;3.75;;;;;;;32.36;59.73;100781.09;5064627;28;68982;-35
2021/06/23 06:31:16;;;;;;;6.50;3.95;;;;;;;32.24;59.76;100755.81;5059617;27;66495;-35
2021/06/23 06:33:49;;;;;;;3.83;3.53;;;;;;;32.33;59.97;100769.88;5062928;27;68836;-35
2021/06/23 06:36:39;;;;;;;4.20;3.55;;;;;;;32.32;59.87;100779.91;5063924;27;64407;-36
2021/06/23 06:39:28;;;;;;;5.82;4.18;;;;;;;32.30;59.82;100776.59;5066212;28;69278;-35
2021/06/23 06:42:36;;;;;;;8.35;4.18;;;;;;;32.21;60.02;100767.13;5071795;27;66189;-36
2021/06/23 06:45:08;;;;;;;4.47;4.07;;;;;;;32.27;60.01;100758.06;5062631;27;70059;-35
2021/06/23 06:47:40;;;;;;;4.88;4.00;;;;;;;32.16;59.54;100729.00;5068694;28;66162;-35
2021/06/23 06:50:29;;;;;;;;;;;;;;;32.00;60.32;100734.03;5063169;27;70618;-34
2021/06/23 06:53:19;;;;;;;7.43;3.42;;;;;;;32.20;59.88;100724.75;5068807;27;66116;-35
2021/06/23 06:56:08;;;;;;;3.70;3.40;;;;;;;32.15;59.89;100713.78;5066498;27;69851;-35
2021/06/23 07:01:29;;;;;;;4.22;3.85;;;;;;;32.20;59.64;100712.00;5070968;28;69941;-35
2021/06/23 07:04:00;;;;;;;;;;;;;;;31.96;60.55;100719.28;5075283;27;66106;-35
2021/06/23 07:07:08;;;;;;;3.75;3.15;;;;;;;32.09;60.27;100714.69;5071784;28;69295;-37
2021/06/23 07:09:39;;;;;;;5.72;3.35;;;;;;;32.15;59.80;100694.78;5068201;27;64853;-36
2021/06/23 07:12:11;;;;;;;3.75;3.45;;;;;;;32.15;59.85;100695.63;5084510;27;69182;-35
2021/06/23 07:15:01;;;;;;;5.03;3.25;;;;;;;32.13;59.87;100686.06;5072015;27;66304;-36
2021/06/23 07:17:33;;;;;;;3.90;3.47;;;;;;;32.14;59.73;100690.41;5071690;27;70023;-35
2021/06/23 07:20:07;;;;;;;3.30;3.00;;;;;;;32.14;60.23;100679.56;5057436;27;66462;-34
2021/06/23 07:22:39;;;;;;;3.72;3.42;;;;;;;32.11;59.83;100671.88;5071109;27;69399;-36
2021/06/23 07:25:11;;;;;;;6.93;3.58;;;;;;;32.11;60.30;100661.03;5067672;28;65851;-34
2021/06/23 07:39:19;;;;;;;4.05;3.63;;;;;;;31.79;60.10;100596.22;5009029;28;69116;-36
2021/06/23 07:41:52;;;;;;;9.38;3.15;;;;;;;32.11;60.02;100644.75;5006429;28;66052;-35
2021/06/23 07:47:28;;;;;;;4.35;3.45;;;;;;;32.11;60.31;100637.44;5005406;28;66079;-35
2021/06/23 07:50:18;;;;;;;4.10;3.03;;;;;;;32.10;60.55;100645.81;5005800;28;69159;-35
2021/06/23 07:53:06;;;;;;;3.95;3.55;;;;;;;32.10;60.36;100635.78;5064015;27;65934;-35
2021/06/23 07:56:08;;;;;;;5.82;4.25;;;;;;;32.12;60.62;100638.25;5070313;28;70084;-34
2021/06/23 08:08:14;;;;;;;5.90;4.32;;;;;;;32.14;60.35;100647.00;5066232;28;70377;-35
2021/06/23 08:10:50;;;;;;;7.75;4.20;;;;;;;32.13;60.43;100639.94;5064394;27;66353;-35
2021/06/23 08:13:58;;;;;;;5.40;4.38;;;;;;;32.14;60.05;100630.72;5055510;27;69963;-34
2021/06/23 08:19:39;;;;;;;10.63;3.90;;;;;;;32.13;60.30;100629.06;5069451;27;70301;-34
2021/06/23 08:22:28;;;;;;;5.35;4.50;;;;;;;32.13;60.49;100645.34;5069384;27;65428;-34
2021/06/23 08:25:00;;;;;;;4.27;3.53;;;;;;;32.12;60.44;100640.97;5072809;27;69762;-34
2021/06/23 08:27:51;;;;;;;6.70;3.70;;;;;;;32.14;60.65;100641.56;5070079;27;66101;-34
2021/06/23 08:30:58;;;;;;;4.75;3.90;;;;;;;32.07;60.78;100644.41;5069892;28;69371;-36
2021/06/23 08:33:30;;;;;;;5.35;4.05;;;;;;;32.15;60.55;100648.63;5070720;27;65768;-34
2021/06/23 08:36:01;;;;;;;4.80;3.88;;;;;;;32.14;60.48;100652.44;5069763;28;69848;-35
2021/06/23 08:38:33;;;;;;;4.20;3.80;;;;;;;32.13;60.62;100658.91;5066661;28;64597;-35
2021/06/23 08:41:05;;;;;;;5.00;4.28;;;;;;;32.12;60.54;100657.25;5067947;27;69975;-35
2021/06/23 08:43:36;;;;;;;;;;;;;;;31.92;61.60;100655.69;5069495;28;66687;-36
2021/06/23 08:46:07;;;;;;;5.32;3.67;;;;;;;32.12;60.57;100654.53;5069389;28;70255;-36
2021/06/23 08:48:41;;;;;;;6.15;4.68;;;;;;;32.09;60.94;100644.97;5072323;28;66002;-34
2021/06/23 08:51:31;;;;;;;4.30;3.90;;;;;;;32.12;60.36;100646.41;5071035;27;70360;-35
2021/06/23 08:54:03;;;;;;;6.03;4.55;;;;;;;32.04;60.60;100626.72;5070916;27;65278;-34
2021/06/23 08:56:36;;;;;;;4.97;4.57;;;;;;;32.13;60.63;100642.66;5071974;27;70399;-35
2021/06/23 08:59:07;;;;;;;;;;;;;;;31.90;61.18;100644.22;5067585;27;66318;-34
2021/06/23 09:01:57;;;;;;;6.20;4.00;;;;;;;32.10;60.57;100645.81;5068446;28;70313;-35
2021/06/23 09:04:57;;;;;;;5.57;4.25;;;;;;;32.05;61.31;100639.19;5069230;28;66828;-35
2021/06/23 09:10:38;;;;;;;6.45;5.22;;;;;;;32.12;60.95;100638.25;5069537;28;65037;-35
2021/06/23 09:13:10;;;;;;;6.38;4.20;;;;;;;32.12;61.23;100616.53;5070481;27;70392;-35
2021/06/23 09:16:02;;;;;;;6.25;4.55;;;;;;;31.96;60.70;100580.94;5070618;27;65397;-36
2021/06/23 09:18:36;;;;;;;6.00;4.37;;;;;;;32.11;60.87;100609.47;5067335;28;70760;-35
2021/06/23 09:24:55;;;;;;;4.63;4.22;;;;;;;31.93;60.92;100575.97;5004303;28;70370;-35
2021/06/23 09:27:30;;;;;;;5.95;4.13;;;;;;;31.94;60.63;100577.63;5006426;28;65533;-36
2021/06/23 09:30:25;;;;;;;5.38;4.30;;;;;;;32.05;60.83;100606.63;5007051;28;70076;-35
2021/06/23 09:36:00;;;;;;;4.82;4.43;;;;;;;32.05;61.02;100590.38;5007781;28;70161;-35
2021/06/23 09:38:52;;;;;;;6.95;4.40;;;;;;;32.12;61.09;100605.69;5007221;28;65039;-35
2021/06/23 09:41:32;;;;;;;6.80;4.90;;;;;;;32.05;61.27;100605.81;5004606;28;69216;-36
2021/06/23 09:44:07;;;;;;;5.15;4.75;;;;;;;32.05;61.17;100611.25;5007767;28;66130;-35
2021/06/23 09:46:45;;;;;;;5.35;4.80;;;;;;;32.11;61.47;100623.06;5004828;28;69981;-34
2021/06/23 09:49:42;;;;;;;5.90;4.50;;;;;;;31.90;61.24;100592.69;5005565;28;65255;-36
2021/06/23 09:52:16;;;;;;;8.27;4.90;;;;;;;32.07;61.24;100625.41;5004862;28;69818;-34
2021/06/23 09:54:54;;;;;;;5.13;4.63;;;;;;;31.92;61.02;100612.28;4990765;28;66212;-34
2021/06/23 09:57:28;;;;;;;7.47;5.10;;;;;;;32.09;61.39;100644.16;5006243;28;69826;-34
2021/06/23 10:00:12;;;;;;;9.55;4.97;;;;;;;32.05;61.27;100658.19;5007659;28;65502;-35
2021/06/23 10:02:45;;;;;;;5.70;5.18;;;;;;;32.11;61.38;100661.03;5066102;27;68886;-35
2021/06/23 10:05:27;;;;;;;5.82;4.80;;;;;;;32.07;61.11;100657.13;5069398;27;66196;-35
2021/06/23 10:07:59;;;;;;;6.47;4.95;;;;;;;32.10;60.88;100662.09;5069570;28;69340;-34
2021/06/23 10:10:44;;;;;;;6.25;5.00;;;;;;;32.04;61.06;100664.69;5066158;27;65325;-35
2021/06/23 10:13:47;;;;;;;12.07;4.80;;;;;;;32.08;61.00;100661.50;5068894;28;69189;-34
2021/06/23 10:16:38;;;;;;;8.55;5.10;;;;;;;32.10;61.05;100662.09;5072236;28;66199;-35
2021/06/23 10:19:32;;;;;;;5.70;4.80;;;;;;;32.10;61.24;100654.78;5032399;28;70171;-36
2021/06/23 10:22:06;;;;;;;7.03;4.75;;;;;;;31.93;60.98;100634.81;5029957;28;66239;-35
2021/06/23 10:28:42;;;;;;;9.35;4.70;;;;;;;31.93;60.87;100640.22;5023911;28;66026;-34
2021/06/23 10:31:15;;;;;;;5.50;4.50;;;;;;;32.08;60.86;100667.75;5028712;28;70242;-35
2021/06/23 10:36:58;;;;;;;9.07;4.97;;;;;;;31.94;60.86;100653.56;5017621;28;69872;-36
2021/06/23 10:49:00;;;;;;;6.90;5.03;;;;;;;31.98;61.08;100711.75;5024233;28;69950;-35
2021/06/23 10:51:51;;;;;;;8.70;5.38;;;;;;;32.05;60.61;100711.63;5025610;28;65375;-36
2021/06/23 10:54:42;;;;;;;9.88;5.72;;;;;;;31.96;61.21;100711.16;5023486;28;69987;-35
2021/06/23 10:57:28;;;;;;;7.90;5.20;;;;;;;31.86;61.12;100691.84;5055645;28;65827;-36
2021/06/23 11:00:17;;;;;;;8.57;5.60;;;;;;;31.99;61.16;100718.00;5075464;27;70529;-34
2021/06/23 11:06:14;;;;;;;11.02;6.85;;;;;;;31.92;61.57;100699.09;5075774;27;70056;-34
2021/06/23 11:12:48;;;;;;;11.90;7.00;;;;;;;31.98;62.38;100749.72;5035782;28;69158;-36
2021/06/23 11:16:00;;;;;;;13.70;6.95;;;;;;;32.02;61.99;100767.19;5040314;28;66857;-35
2021/06/23 11:19:08;;;;;;;11.88;7.50;;;;;;;32.00;62.01;100777.44;5037648;28;70014;-34
2021/06/23 11:24:31;;;;;;;15.45;7.07;;;;;;;32.04;61.94;100778.66;5033544;28;70458;-37
2021/06/23 11:29:58;;;;;;;10.07;6.90;;;;;;;31.95;63.14;100792.75;5035713;28;70330;-35
2021/06/23 11:33:29;;;;;;;17.17;7.30;;;;;;;31.81;63.71;100789.34;4960488;28;66221;-35
2021/06/23 11:38:55;;;;;;;14.02;6.60;;;;;;;31.74;63.81;100778.59;4944397;28;66180;-34
2021/06/23 11:41:45;;;;;;;17.88;7.05;;;;;;;31.74;64.30;100799.47;4959532;28;69751;-36
2021/06/23 11:44:37;;;;;;;14.05;6.38;;;;;;;31.78;64.06;100797.94;4961448;28;66582;-35
2021/06/23 11:47:15;;;;;;;8.73;6.47;;;;;;;31.74;63.79;100794.06;4972970;28;69150;-36
2021/06/23 11:52:57;;;;;;;10.70;6.97;;;;;;;31.78;63.76;100795.25;4954668;28;70008;-35
2021/06/23 11:55:46;;;;;;;24.77;8.02;;;;;;;31.74;64.01;100792.16;4954198;28;66064;-34
2021/06/23 11:58:18;;;;;;;13.45;7.85;;;;;;;31.75;63.88;100790.28;4953131;28;70160;-35
2021/06/23 12:01:08;;;;;;;12.45;7.20;;;;;;;31.75;64.08;100790.28;4937569;28;66060;-35
2021/06/23 12:09:37;;;;;;;15.07;6.88;;;;;;;31.67;62.60;100799.53;4985333;28;70081;-35
2021/06/23 12:12:09;;;;;;;18.25;7.30;;;;;;;31.57;62.51;100804.69;5008065;28;65298;-35
2021/06/23 12:15:00;;;;;;;29.33;7.45;;;;;;;31.55;62.03;100813.03;5010637;28;69265;-41
2021/06/23 12:17:31;;;;;;;21.48;5.93;;;;;;;31.49;60.43;100819.38;4955161;28;65444;-40
2021/06/23 12:23:12;;;;;;;20.67;5.97;;;;;;;31.04;57.58;100826.91;4955088;28;65595;-39
2021/06/23 12:25:47;;;;;;;29.92;6.38;;;;;;;30.89;56.67;100840.78;4952765;28;70594;-41
2021/06/23 12:28:19;;;;;;;15.68;5.50;;;;;;;30.69;57.93;100849.84;5015578;28;65163;-41
2021/06/23 12:30:50;;;;;;;;;;;;;;;30.30;55.97;100852.84;5026270;28;70054;-45
2021/06/23 12:33:23;;;;;;;29.60;5.78;;;;;;;30.35;56.32;100861.16;5028543;28;66315;-41
2021/06/23 12:35:54;;;;;;;15.80;6.25;;;;;;;30.25;55.25;100872.41;5022006;28;69834;-40
2021/06/23 12:38:26;;;;;;;25.10;5.80;;;;;;;30.14;54.71;100875.78;5028680;28;66579;-42
2021/06/23 12:40:57;;;;;;;;;;;;;;;29.81;53.89;100883.00;5027987;28;70518;-44
2021/06/23 12:43:29;;;;;;;25.92;6.15;;;;;;;29.94;53.81;100886.69;5024937;28;66209;-41
2021/06/23 12:46:12;;;;;;;20.25;5.60;;;;;;;29.92;54.30;100899.59;5031700;28;69694;-42
2021/06/23 12:49:24;;;;;;;27.42;5.60;;;;;;;29.89;54.05;100905.41;5029341;28;66250;-38
2021/06/23 12:51:57;;;;;;;27.63;6.15;;;;;;;29.90;53.13;100913.34;5029442;28;69758;-41
2021/06/23 12:54:48;;;;;;;19.02;5.93;;;;;;;29.83;52.78;100916.03;5049837;27;66328;-43
2021/06/23 12:57:38;;;;;;;24.80;6.30;;;;;;;29.83;53.35;100924.16;5090026;27;70790;-44
2021/06/23 13:00:10;;;;;;;;;;;;;;;29.59;53.34;100941.03;5092006;27;65216;-42
2021/06/23 13:02:44;;;;;;;20.38;6.32;;;;;;;29.77;52.50;100935.81;5077228;27;69123;-39
2021/06/23 13:05:34;;;;;;;28.42;7.30;;;;;;;29.74;52.00;100935.44;5091137;27;65485;-40
2021/06/23 13:08:07;;;;;;;17.70;6.18;;;;;;;29.69;52.32;100922.53;5090859;27;69827;-41
2021/06/23 13:10:38;;;;;;;19.73;5.90;;;;;;;29.75;50.95;100937.91;5091343;27;66182;-39
2021/06/23 13:13:10;;;;;;;15.07;5.00;;;;;;;29.71;51.43;100947.50;5094771;27;69965;-40
2021/06/23 13:15:41;;;;;;;35.90;6.25;;;;;;;29.69;50.06;100954.97;5090066;27;66091;-42
2021/06/23 13:18:14;;;;;;;19.17;6.68;;;;;;;29.62;50.12;100946.03;5094514;27;70012;-40
2021/06/23 13:21:01;;;;;;;24.35;6.82;;;;;;;29.53;49.75;100941.84;5092493;27;65639;-40
2021/06/23 13:23:53;;;;;;;11.82;5.60;;;;;;;29.62;49.12;100959.53;5047518;28;69814;-39
2021/06/23 13:26:25;;;;;;;15.98;6.63;;;;;;;29.62;49.51;100959.53;5035538;28;66408;-40
2021/06/23 13:28:57;;;;;;;10.45;5.85;;;;;;;29.49;49.63;100938.75;5029326;28;69975;-37
2021/06/23 13:31:29;;;;;;;;;;;;;;;29.28;47.05;100956.03;5019956;28;66308;-39
2021/06/23 13:36:52;;;;;;;33.28;6.15;;;;;;;29.48;48.74;100947.09;5025418;28;66377;-40
2021/06/23 13:39:23;;;;;;;20.52;5.65;;;;;;;29.49;49.02;100943.34;5005680;28;70274;-40
2021/06/23 13:41:55;;;;;;;18.60;6.80;;;;;;;29.42;49.38;100934.38;5014781;28;66120;-39
2021/06/23 13:44:27;;;;;;;;;;;;;;;29.19;46.99;100946.44;5026738;28;70016;-39
2021/06/23 13:47:38;;;;;;;18.70;6.10;;;;;;;29.32;47.64;100938.34;4971422;28;66496;-38
2021/06/23 13:50:15;;;;;;;15.23;6.15;;;;;;;29.08;47.31;100903.84;4970743;28;69911;-39
2021/06/23 13:55:44;;;;;;;6.70;6.07;;;;;;;29.23;46.98;100960.41;4971929;28;69964;-41
2021/06/23 13:58:20;;;;;;;19.40;6.18;;;;;;;29.14;45.86;100963.31;4985682;28;43682;-39
2021/06/23 14:01:15;;;;;;;10.00;5.28;;;;;;;29.16;46.35;100971.19;5004589;28;69360;-39
2021/06/23 14:04:13;;;;;;;11.27;5.47;;;;;;;29.01;44.88;100967.81;5010980;28;66263;-40
2021/06/23 14:09:37;;;;;;;24.50;6.70;;;;;;;29.05;50.65;100963.69;4991507;28;65924;-38
2021/06/23 14:12:11;;;;;;;17.92;6.97;;;;;;;29.08;50.36;100968.69;4992395;28;69244;-39
2021/06/23 14:14:45;;;;;;;12.20;5.85;;;;;;;29.07;50.12;100967.84;4991911;28;66460;-38
2021/06/23 14:17:28;;;;;;;10.77;6.22;;;;;;;29.09;49.11;100970.34;4989531;28;70113;-39
2021/06/23 14:20:15;;;;;;;11.88;6.25;;;;;;;29.06;48.63;100970.75;4991019;28;66494;-39
2021/06/23 14:23:08;;;;;;;13.70;6.40;;;;;;;28.70;48.42;100923.31;4969622;28;69746;-40
2021/06/23 14:25:40;;;;;;;18.65;6.50;;;;;;;29.03;48.00;100976.53;5007587;28;66044;-39
2021/06/23 14:28:35;;;;;;;11.35;6.28;;;;;;;28.89;45.70;100971.13;5005129;28;69360;-39
2021/06/23 14:31:07;;;;;;;15.43;5.38;;;;;;;28.87;45.65;100975.88;4946730;28;65973;-39
2021/06/23 14:33:54;;;;;;;6.70;5.95;;;;;;;28.83;45.55;100977.31;4932724;28;68950;-39
2021/06/23 14:36:46;;;;;;;16.27;5.75;;;;;;;28.80;45.97;100979.59;4912562;28;66336;-39
2021/06/23 14:39:20;;;;;;;7.88;5.97;;;;;;;28.76;45.70;100972.97;4925473;28;70328;-39
2021/06/23 14:42:10;;;;;;;12.57;5.70;;;;;;;28.73;44.91;100966.94;4924930;28;65859;-39
2021/06/23 14:47:36;;;;;;;7.07;5.75;;;;;;;28.64;45.74;100972.69;4927227;28;65661;-40
2021/06/23 14:50:11;;;;;;;15.30;5.22;;;;;;;28.68;44.28;100990.16;4913744;28;69911;-39
2021/06/23 14:52:45;;;;;;;8.85;4.85;;;;;;;28.62;43.81;100990.97;4932211;28;65226;-39
2021/06/23 14:55:26;;;;;;;5.53;5.03;;;;;;;28.57;44.06;100988.88;4927721;28;69863;-39
2021/06/23 14:58:54;;;;;;;10.73;5.18;;;;;;;28.45;43.17;100996.72;4947243;28;65474;-38
2021/06/23 15:04:19;;;;;;;7.65;5.45;;;;;;;28.55;43.08;101011.72;4953310;28;66037;-39
2021/06/23 15:06:52;;;;;;;7.63;4.78;;;;;;;28.49;43.25;100997.16;4955007;28;69867;-38
2021/06/23 15:09:23;;;;;;;;;;;;;;;28.30;42.94;101001.38;4972645;28;65360;-38
2021/06/23 15:11:57;;;;;;;8.23;4.88;;;;;;;28.51;43.45;100998.63;5061157;27;69976;-38
2021/06/23 15:14:46;;;;;;;12.07;6.03;;;;;;;28.55;42.23;101011.72;5055713;28;66422;-36
2021/06/23 15:17:18;;;;;;;15.73;5.80;;;;;;;28.52;42.87;101018.34;5054661;28;69843;-41
2021/06/23 15:19:50;;;;;;;;;;;;;;;28.24;42.71;101016.50;5056008;28;65335;-36
2021/06/23 15:22:21;;;;;;;12.68;5.97;;;;;;;28.47;42.62;101021.66;5070876;28;70131;-37